sensor_id;sensor_type;location;lat;lon;timestamp;temperature;humidity
53274;DHT22;39163;52.696;6.758;2024-01-30T00:01:40;6.60;99.90
53274;DHT22;39163;52.696;6.758;2024-01-30T00:04:07;6.60;99.90
53274;DHT22;39163;52.696;6.758;2024-01-30T00:06:34;6.70;99.90
53274;DHT22;39163;52.696;6.758;2024-01-30T00:09:00;6.70;99.90
53274;DHT22;39163;52.696;6.758;2024-01-30T00:11:29;6.70;99.90
53274;DHT22;39163;52.696;6.758;2024-01-30T00:13:56;6.80;99.90
53274;DHT22;39163;52.696;6.758;2024-01-30T00:16:24;6.90;99.90
53274;DHT22;39163;52.696;6.758;2024-01-30T00:18:51;6.90;99.90
53274;DHT22;39163;52.696;6.758;2024-01-30T00:21:19;6.90;99.90
53274;DHT22;39163;52.696;6.758;2024-01-30T00:23:46;6.90;99.90
53274;DHT22;39163;52.696;6.758;2024-01-30T00:26:14;7.00;99.90
53274;DHT22;39163;52.696;6.758;2024-01-30T00:28:42;7.00;99.90
53274;DHT22;39163;52.696;6.758;2024-01-30T00:31:09;7.10;99.90
53274;DHT22;39163;52.696;6.758;2024-01-30T00:33:38;7.00;99.90
53274;DHT22;39163;52.696;6.758;2024-01-30T00:36:05;7.00;99.90
53274;DHT22;39163;52.696;6.758;2024-01-30T00:38:32;7.00;99.90
53274;DHT22;39163;52.696;6.758;2024-01-30T00:40:59;7.10;99.90
53274;DHT22;39163;52.696;6.758;2024-01-30T00:43:28;7.20;99.90
53274;DHT22;39163;52.696;6.758;2024-01-30T00:45:56;7.20;99.90
53274;DHT22;39163;52.696;6.758;2024-01-30T00:48:23;7.20;99.90
53274;DHT22;39163;52.696;6.758;2024-01-30T00:50:50;7.20;99.90
53274;DHT22;39163;52.696;6.758;2024-01-30T00:53:18;7.20;99.90
53274;DHT22;39163;52.696;6.758;2024-01-30T00:55:44;7.10;99.90
53274;DHT22;39163;52.696;6.758;2024-01-30T00:58:11;7.20;99.90
53274;DHT22;39163;52.696;6.758;2024-01-30T01:00:38;7.10;99.90
53274;DHT22;39163;52.696;6.758;2024-01-30T01:03:07;7.20;99.90
53274;DHT22;39163;52.696;6.758;2024-01-30T01:05:34;7.10;99.90
53274;DHT22;39163;52.696;6.758;2024-01-30T01:08:01;7.20;99.90
53274;DHT22;39163;52.696;6.758;2024-01-30T01:10:28;7.20;99.90
53274;DHT22;39163;52.696;6.758;2024-01-30T01:12:55;7.20;99.90
53274;DHT22;39163;52.696;6.758;2024-01-30T01:15:22;7.20;99.90
53274;DHT22;39163;52.696;6.758;2024-01-30T01:17:49;7.10;99.90
53274;DHT22;39163;52.696;6.758;2024-01-30T01:20:17;7.10;99.90
53274;DHT22;39163;52.696;6.758;2024-01-30T01:22:44;7.00;99.90
53274;DHT22;39163;52.696;6.758;2024-01-30T01:25:11;7.00;99.90
53274;DHT22;39163;52.696;6.758;2024-01-30T01:27:38;7.10;99.90
53274;DHT22;39163;52.696;6.758;2024-01-30T01:30:08;7.00;99.90
53274;DHT22;39163;52.696;6.758;2024-01-30T01:32:36;7.00;99.90
53274;DHT22;39163;52.696;6.758;2024-01-30T01:35:04;7.00;99.90
53274;DHT22;39163;52.696;6.758;2024-01-30T01:37:33;7.10;99.90
53274;DHT22;39163;52.696;6.758;2024-01-30T01:40:00;7.10;99.90
53274;DHT22;39163;52.696;6.758;2024-01-30T01:42:28;7.10;99.90
53274;DHT22;39163;52.696;6.758;2024-01-30T01:44:55;7.20;99.90
53274;DHT22;39163;52.696;6.758;2024-01-30T01:47:22;7.10;99.90
53274;DHT22;39163;52.696;6.758;2024-01-30T01:49:49;7.10;99.90
53274;DHT22;39163;52.696;6.758;2024-01-30T01:52:17;7.10;99.90
53274;DHT22;39163;52.696;6.758;2024-01-30T01:54:45;7.00;99.90
53274;DHT22;39163;52.696;6.758;2024-01-30T01:57:12;7.00;99.90
53274;DHT22;39163;52.696;6.758;2024-01-30T01:59:39;7.00;99.90
53274;DHT22;39163;52.696;6.758;2024-01-30T02:02:08;7.00;99.90
53274;DHT22;39163;52.696;6.758;2024-01-30T02:04:38;7.00;99.90
53274;DHT22;39163;52.696;6.758;2024-01-30T02:07:05;6.90;99.90
53274;DHT22;39163;52.696;6.758;2024-01-30T02:09:31;6.90;99.90
53274;DHT22;39163;52.696;6.758;2024-01-30T02:12:00;6.90;99.90
53274;DHT22;39163;52.696;6.758;2024-01-30T02:14:27;6.90;99.90
53274;DHT22;39163;52.696;6.758;2024-01-30T02:16:54;7.00;99.90
53274;DHT22;39163;52.696;6.758;2024-01-30T02:19:20;7.00;99.90
53274;DHT22;39163;52.696;6.758;2024-01-30T02:21:49;7.00;99.90
53274;DHT22;39163;52.696;6.758;2024-01-30T02:24:17;7.00;99.90
53274;DHT22;39163;52.696;6.758;2024-01-30T02:26:44;7.00;99.90
53274;DHT22;39163;52.696;6.758;2024-01-30T02:29:11;7.00;99.90
53274;DHT22;39163;52.696;6.758;2024-01-30T02:31:38;7.10;99.90
53274;DHT22;39163;52.696;6.758;2024-01-30T02:34:04;7.10;99.90
53274;DHT22;39163;52.696;6.758;2024-01-30T02:36:31;7.10;99.90
53274;DHT22;39163;52.696;6.758;2024-01-30T02:39:00;7.10;99.90
53274;DHT22;39163;52.696;6.758;2024-01-30T02:41:27;7.10;99.90
53274;DHT22;39163;52.696;6.758;2024-01-30T02:43:54;7.10;99.90
53274;DHT22;39163;52.696;6.758;2024-01-30T02:46:21;7.10;99.90
53274;DHT22;39163;52.696;6.758;2024-01-30T02:48:48;7.10;99.90
53274;DHT22;39163;52.696;6.758;2024-01-30T02:51:15;7.20;99.90
53274;DHT22;39163;52.696;6.758;2024-01-30T02:53:42;7.10;99.90
53274;DHT22;39163;52.696;6.758;2024-01-30T02:56:10;7.20;99.90
53274;DHT22;39163;52.696;6.758;2024-01-30T02:58:39;7.20;99.90
53274;DHT22;39163;52.696;6.758;2024-01-30T03:01:06;7.20;99.90
53274;DHT22;39163;52.696;6.758;2024-01-30T03:03:33;7.20;99.90
53274;DHT22;39163;52.696;6.758;2024-01-30T03:06:01;7.20;99.90
53274;DHT22;39163;52.696;6.758;2024-01-30T03:08:28;7.20;99.90
53274;DHT22;39163;52.696;6.758;2024-01-30T03:10:55;7.20;99.90
53274;DHT22;39163;52.696;6.758;2024-01-30T03:13:23;7.20;99.90
53274;DHT22;39163;52.696;6.758;2024-01-30T03:15:50;7.30;99.90
53274;DHT22;39163;52.696;6.758;2024-01-30T03:18:18;7.30;99.90
53274;DHT22;39163;52.696;6.758;2024-01-30T03:20:45;7.30;99.90
53274;DHT22;39163;52.696;6.758;2024-01-30T03:23:11;7.30;99.90
53274;DHT22;39163;52.696;6.758;2024-01-30T03:25:38;7.30;99.90
53274;DHT22;39163;52.696;6.758;2024-01-30T03:28:05;7.30;99.90
53274;DHT22;39163;52.696;6.758;2024-01-30T03:30:34;7.30;99.90
53274;DHT22;39163;52.696;6.758;2024-01-30T03:33:01;7.30;99.90
53274;DHT22;39163;52.696;6.758;2024-01-30T03:35:28;7.30;99.90
53274;DHT22;39163;52.696;6.758;2024-01-30T03:37:55;7.30;99.90
53274;DHT22;39163;52.696;6.758;2024-01-30T03:40:21;7.30;99.90
53274;DHT22;39163;52.696;6.758;2024-01-30T03:42:48;7.30;99.90
53274;DHT22;39163;52.696;6.758;2024-01-30T03:45:15;7.30;99.90
53274;DHT22;39163;52.696;6.758;2024-01-30T03:47:46;7.30;99.90
53274;DHT22;39163;52.696;6.758;2024-01-30T03:50:13;7.30;99.90
53274;DHT22;39163;52.696;6.758;2024-01-30T03:52:40;7.40;99.90
53274;DHT22;39163;52.696;6.758;2024-01-30T03:55:08;7.40;99.90
53274;DHT22;39163;52.696;6.758;2024-01-30T03:57:35;7.40;99.90
53274;DHT22;39163;52.696;6.758;2024-01-30T04:00:02;7.50;99.90
53274;DHT22;39163;52.696;6.758;2024-01-30T04:02:30;7.60;99.90
53274;DHT22;39163;52.696;6.758;2024-01-30T04:04:58;7.60;99.90
53274;DHT22;39163;52.696;6.758;2024-01-30T04:07:25;7.60;99.90
53274;DHT22;39163;52.696;6.758;2024-01-30T04:09:52;7.60;99.90
53274;DHT22;39163;52.696;6.758;2024-01-30T04:12:19;7.60;99.90
53274;DHT22;39163;52.696;6.758;2024-01-30T04:14:46;7.60;99.90
53274;DHT22;39163;52.696;6.758;2024-01-30T04:17:13;7.70;99.90
53274;DHT22;39163;52.696;6.758;2024-01-30T04:19:41;7.70;99.90
53274;DHT22;39163;52.696;6.758;2024-01-30T04:22:09;7.70;99.90
53274;DHT22;39163;52.696;6.758;2024-01-30T04:24:36;7.70;99.90
53274;DHT22;39163;52.696;6.758;2024-01-30T04:27:04;7.70;99.90
53274;DHT22;39163;52.696;6.758;2024-01-30T04:29:30;7.70;99.90
53274;DHT22;39163;52.696;6.758;2024-01-30T04:31:59;7.70;99.90
53274;DHT22;39163;52.696;6.758;2024-01-30T04:34:26;7.70;99.90
53274;DHT22;39163;52.696;6.758;2024-01-30T04:36:53;7.80;99.90
53274;DHT22;39163;52.696;6.758;2024-01-30T04:39:21;7.70;99.90
53274;DHT22;39163;52.696;6.758;2024-01-30T04:41:48;7.70;99.90
53274;DHT22;39163;52.696;6.758;2024-01-30T04:44:15;7.70;99.90
53274;DHT22;39163;52.696;6.758;2024-01-30T04:46:42;7.80;99.90
53274;DHT22;39163;52.696;6.758;2024-01-30T04:49:09;7.80;99.90
53274;DHT22;39163;52.696;6.758;2024-01-30T04:51:36;7.70;99.90
53274;DHT22;39163;52.696;6.758;2024-01-30T04:54:03;7.80;99.90
53274;DHT22;39163;52.696;6.758;2024-01-30T04:56:31;7.80;99.90
53274;DHT22;39163;52.696;6.758;2024-01-30T04:58:58;7.80;99.90
53274;DHT22;39163;52.696;6.758;2024-01-30T05:01:25;7.80;99.90
53274;DHT22;39163;52.696;6.758;2024-01-30T05:03:52;7.80;99.90
53274;DHT22;39163;52.696;6.758;2024-01-30T05:06:24;7.90;99.90
53274;DHT22;39163;52.696;6.758;2024-01-30T05:08:51;7.80;99.90
53274;DHT22;39163;52.696;6.758;2024-01-30T05:11:18;7.90;99.90
53274;DHT22;39163;52.696;6.758;2024-01-30T05:13:47;7.80;99.90
53274;DHT22;39163;52.696;6.758;2024-01-30T05:16:14;7.80;99.90
53274;DHT22;39163;52.696;6.758;2024-01-30T05:18:41;7.80;99.90
53274;DHT22;39163;52.696;6.758;2024-01-30T05:21:08;7.80;99.90
53274;DHT22;39163;52.696;6.758;2024-01-30T05:23:35;7.80;99.90
53274;DHT22;39163;52.696;6.758;2024-01-30T05:26:02;7.80;99.90
53274;DHT22;39163;52.696;6.758;2024-01-30T05:28:29;7.80;99.90
53274;DHT22;39163;52.696;6.758;2024-01-30T05:30:58;7.80;99.90
53274;DHT22;39163;52.696;6.758;2024-01-30T05:33:24;7.80;99.90
53274;DHT22;39163;52.696;6.758;2024-01-30T05:35:51;7.90;99.90
53274;DHT22;39163;52.696;6.758;2024-01-30T05:38:20;7.90;99.90
53274;DHT22;39163;52.696;6.758;2024-01-30T05:40:47;7.90;99.90
53274;DHT22;39163;52.696;6.758;2024-01-30T05:43:14;7.90;99.90
53274;DHT22;39163;52.696;6.758;2024-01-30T05:45:41;8.00;99.90
53274;DHT22;39163;52.696;6.758;2024-01-30T05:48:09;8.00;99.90
53274;DHT22;39163;52.696;6.758;2024-01-30T05:50:36;8.10;99.90
53274;DHT22;39163;52.696;6.758;2024-01-30T05:53:03;8.10;99.90
53274;DHT22;39163;52.696;6.758;2024-01-30T05:55:30;8.10;99.90
53274;DHT22;39163;52.696;6.758;2024-01-30T05:57:57;8.10;99.90
53274;DHT22;39163;52.696;6.758;2024-01-30T06:00:24;8.10;99.90
53274;DHT22;39163;52.696;6.758;2024-01-30T06:02:51;8.10;99.90
53274;DHT22;39163;52.696;6.758;2024-01-30T06:05:19;8.20;99.90
53274;DHT22;39163;52.696;6.758;2024-01-30T06:07:46;8.20;99.90
53274;DHT22;39163;52.696;6.758;2024-01-30T06:10:13;8.20;99.90
53274;DHT22;39163;52.696;6.758;2024-01-30T06:12:40;8.30;99.90
53274;DHT22;39163;52.696;6.758;2024-01-30T06:15:08;8.30;99.90
53274;DHT22;39163;52.696;6.758;2024-01-30T06:17:35;8.30;99.90
53274;DHT22;39163;52.696;6.758;2024-01-30T06:20:03;8.40;99.90
53274;DHT22;39163;52.696;6.758;2024-01-30T06:22:31;8.40;99.90
53274;DHT22;39163;52.696;6.758;2024-01-30T06:24:58;8.40;99.90
53274;DHT22;39163;52.696;6.758;2024-01-30T06:27:25;8.40;99.90
53274;DHT22;39163;52.696;6.758;2024-01-30T06:29:52;8.50;99.90
53274;DHT22;39163;52.696;6.758;2024-01-30T06:32:19;8.50;99.90
53274;DHT22;39163;52.696;6.758;2024-01-30T06:34:46;8.50;99.90
53274;DHT22;39163;52.696;6.758;2024-01-30T06:37:13;8.50;99.90
53274;DHT22;39163;52.696;6.758;2024-01-30T06:39:41;8.40;99.90
53274;DHT22;39163;52.696;6.758;2024-01-30T06:42:10;8.40;99.90
53274;DHT22;39163;52.696;6.758;2024-01-30T06:44:37;8.50;99.90
53274;DHT22;39163;52.696;6.758;2024-01-30T06:47:04;8.40;99.90
53274;DHT22;39163;52.696;6.758;2024-01-30T06:49:31;8.40;99.90
53274;DHT22;39163;52.696;6.758;2024-01-30T06:51:58;8.40;99.90
53274;DHT22;39163;52.696;6.758;2024-01-30T06:54:25;8.40;99.90
53274;DHT22;39163;52.696;6.758;2024-01-30T06:56:53;8.30;99.90
53274;DHT22;39163;52.696;6.758;2024-01-30T06:59:20;8.40;99.90
53274;DHT22;39163;52.696;6.758;2024-01-30T07:01:47;8.30;99.90
53274;DHT22;39163;52.696;6.758;2024-01-30T07:04:14;8.30;99.90
53274;DHT22;39163;52.696;6.758;2024-01-30T07:06:41;8.30;99.90
53274;DHT22;39163;52.696;6.758;2024-01-30T07:09:08;8.40;99.90
53274;DHT22;39163;52.696;6.758;2024-01-30T07:11:35;8.40;99.90
53274;DHT22;39163;52.696;6.758;2024-01-30T07:14:04;8.40;99.90
53274;DHT22;39163;52.696;6.758;2024-01-30T07:16:31;8.40;99.90
53274;DHT22;39163;52.696;6.758;2024-01-30T07:18:58;8.40;99.90
53274;DHT22;39163;52.696;6.758;2024-01-30T07:21:24;8.40;99.90
53274;DHT22;39163;52.696;6.758;2024-01-30T07:23:54;8.40;99.90
53274;DHT22;39163;52.696;6.758;2024-01-30T07:26:21;8.50;99.90
53274;DHT22;39163;52.696;6.758;2024-01-30T07:28:48;8.40;99.90
53274;DHT22;39163;52.696;6.758;2024-01-30T07:31:17;8.40;99.90
53274;DHT22;39163;52.696;6.758;2024-01-30T07:33:46;8.50;99.90
53274;DHT22;39163;52.696;6.758;2024-01-30T07:36:13;8.50;99.90
53274;DHT22;39163;52.696;6.758;2024-01-30T07:38:40;8.50;99.90
53274;DHT22;39163;52.696;6.758;2024-01-30T07:41:07;8.60;99.90
53274;DHT22;39163;52.696;6.758;2024-01-30T07:43:35;8.60;99.90
53274;DHT22;39163;52.696;6.758;2024-01-30T07:46:02;8.60;99.90
53274;DHT22;39163;52.696;6.758;2024-01-30T07:48:30;8.60;99.90
53274;DHT22;39163;52.696;6.758;2024-01-30T07:50:57;8.60;99.90
53274;DHT22;39163;52.696;6.758;2024-01-30T07:53:24;8.60;99.90
53274;DHT22;39163;52.696;6.758;2024-01-30T07:55:51;8.60;99.90
53274;DHT22;39163;52.696;6.758;2024-01-30T07:58:18;8.60;99.90
53274;DHT22;39163;52.696;6.758;2024-01-30T08:00:45;8.60;99.90
53274;DHT22;39163;52.696;6.758;2024-01-30T08:03:12;8.60;99.90
53274;DHT22;39163;52.696;6.758;2024-01-30T08:05:43;8.60;99.90
53274;DHT22;39163;52.696;6.758;2024-01-30T08:08:10;8.60;99.90
53274;DHT22;39163;52.696;6.758;2024-01-30T08:10:37;8.70;99.90
53274;DHT22;39163;52.696;6.758;2024-01-30T08:13:04;8.70;99.90
53274;DHT22;39163;52.696;6.758;2024-01-30T08:15:31;8.70;99.90
53274;DHT22;39163;52.696;6.758;2024-01-30T08:17:57;8.70;99.90
53274;DHT22;39163;52.696;6.758;2024-01-30T08:20:24;8.70;99.90
53274;DHT22;39163;52.696;6.758;2024-01-30T08:22:53;8.80;99.90
53274;DHT22;39163;52.696;6.758;2024-01-30T08:25:20;8.80;99.90
53274;DHT22;39163;52.696;6.758;2024-01-30T08:27:47;8.80;99.90
53274;DHT22;39163;52.696;6.758;2024-01-30T08:30:14;8.90;99.90
53274;DHT22;39163;52.696;6.758;2024-01-30T08:32:41;8.90;99.90
53274;DHT22;39163;52.696;6.758;2024-01-30T08:35:08;8.90;99.90
53274;DHT22;39163;52.696;6.758;2024-01-30T08:37:35;8.90;99.90
53274;DHT22;39163;52.696;6.758;2024-01-30T08:40:05;9.00;99.90
53274;DHT22;39163;52.696;6.758;2024-01-30T08:42:34;9.00;99.90
53274;DHT22;39163;52.696;6.758;2024-01-30T08:45:01;9.00;99.90
53274;DHT22;39163;52.696;6.758;2024-01-30T08:47:30;9.10;99.90
53274;DHT22;39163;52.696;6.758;2024-01-30T08:49:58;9.10;99.90
53274;DHT22;39163;52.696;6.758;2024-01-30T08:52:26;9.10;99.90
53274;DHT22;39163;52.696;6.758;2024-01-30T08:54:53;9.20;99.90
53274;DHT22;39163;52.696;6.758;2024-01-30T08:57:21;9.20;99.90
53274;DHT22;39163;52.696;6.758;2024-01-30T08:59:48;9.30;99.90
53274;DHT22;39163;52.696;6.758;2024-01-30T09:02:15;9.30;99.90
53274;DHT22;39163;52.696;6.758;2024-01-30T09:04:43;9.30;99.90
53274;DHT22;39163;52.696;6.758;2024-01-30T09:07:10;9.40;99.90
53274;DHT22;39163;52.696;6.758;2024-01-30T09:09:39;9.40;99.90
53274;DHT22;39163;52.696;6.758;2024-01-30T09:12:07;9.40;99.90
53274;DHT22;39163;52.696;6.758;2024-01-30T09:14:37;9.50;99.90
53274;DHT22;39163;52.696;6.758;2024-01-30T09:17:04;9.50;99.90
53274;DHT22;39163;52.696;6.758;2024-01-30T09:19:31;9.50;99.90
53274;DHT22;39163;52.696;6.758;2024-01-30T09:21:58;9.50;99.90
53274;DHT22;39163;52.696;6.758;2024-01-30T09:24:25;9.50;99.90
53274;DHT22;39163;52.696;6.758;2024-01-30T09:26:53;9.50;99.90
53274;DHT22;39163;52.696;6.758;2024-01-30T09:29:20;9.50;99.90
53274;DHT22;39163;52.696;6.758;2024-01-30T09:31:49;9.50;99.90
53274;DHT22;39163;52.696;6.758;2024-01-30T09:34:15;9.60;99.90
53274;DHT22;39163;52.696;6.758;2024-01-30T09:36:42;9.60;99.90
53274;DHT22;39163;52.696;6.758;2024-01-30T09:39:09;9.70;99.90
53274;DHT22;39163;52.696;6.758;2024-01-30T09:41:49;9.70;99.90
53274;DHT22;39163;52.696;6.758;2024-01-30T09:44:16;9.80;99.90
53274;DHT22;39163;52.696;6.758;2024-01-30T09:46:47;9.80;99.90
53274;DHT22;39163;52.696;6.758;2024-01-30T09:49:15;9.80;99.90
53274;DHT22;39163;52.696;6.758;2024-01-30T09:51:44;9.90;99.90
53274;DHT22;39163;52.696;6.758;2024-01-30T09:54:14;9.90;99.90
53274;DHT22;39163;52.696;6.758;2024-01-30T09:56:41;9.90;99.90
53274;DHT22;39163;52.696;6.758;2024-01-30T09:59:08;9.90;99.90
53274;DHT22;39163;52.696;6.758;2024-01-30T10:01:35;9.90;99.90
53274;DHT22;39163;52.696;6.758;2024-01-30T10:04:04;9.90;99.90
53274;DHT22;39163;52.696;6.758;2024-01-30T10:06:32;10.00;99.90
53274;DHT22;39163;52.696;6.758;2024-01-30T10:09:00;10.10;99.90
53274;DHT22;39163;52.696;6.758;2024-01-30T10:11:27;10.10;99.90
53274;DHT22;39163;52.696;6.758;2024-01-30T10:13:54;10.20;99.90
53274;DHT22;39163;52.696;6.758;2024-01-30T10:16:21;10.30;99.90
53274;DHT22;39163;52.696;6.758;2024-01-30T10:18:48;10.40;99.90
53274;DHT22;39163;52.696;6.758;2024-01-30T10:21:15;10.40;99.90
53274;DHT22;39163;52.696;6.758;2024-01-30T10:23:43;10.50;99.90
53274;DHT22;39163;52.696;6.758;2024-01-30T10:26:10;10.50;99.90
53274;DHT22;39163;52.696;6.758;2024-01-30T10:28:37;10.50;99.90
53274;DHT22;39163;52.696;6.758;2024-01-30T10:31:04;10.60;99.90
53274;DHT22;39163;52.696;6.758;2024-01-30T10:33:31;10.60;99.90
53274;DHT22;39163;52.696;6.758;2024-01-30T10:36:01;10.70;99.90
53274;DHT22;39163;52.696;6.758;2024-01-30T10:38:29;10.70;99.90
53274;DHT22;39163;52.696;6.758;2024-01-30T10:40:59;10.80;99.90
53274;DHT22;39163;52.696;6.758;2024-01-30T10:43:31;10.80;99.90
53274;DHT22;39163;52.696;6.758;2024-01-30T10:46:10;10.80;99.90
53274;DHT22;39163;52.696;6.758;2024-01-30T10:48:42;10.80;99.90
53274;DHT22;39163;52.696;6.758;2024-01-30T10:51:10;10.80;99.90
53274;DHT22;39163;52.696;6.758;2024-01-30T10:53:38;10.80;99.90
53274;DHT22;39163;52.696;6.758;2024-01-30T10:56:08;10.80;99.90
53274;DHT22;39163;52.696;6.758;2024-01-30T10:58:36;10.90;99.90
53274;DHT22;39163;52.696;6.758;2024-01-30T11:01:05;10.90;99.90
53274;DHT22;39163;52.696;6.758;2024-01-30T11:03:33;10.90;99.90
53274;DHT22;39163;52.696;6.758;2024-01-30T11:06:02;10.90;99.90
53274;DHT22;39163;52.696;6.758;2024-01-30T11:08:32;10.90;99.90
53274;DHT22;39163;52.696;6.758;2024-01-30T11:10:59;10.90;99.90
53274;DHT22;39163;52.696;6.758;2024-01-30T11:13:30;10.90;99.90
53274;DHT22;39163;52.696;6.758;2024-01-30T11:16:00;10.90;99.90
53274;DHT22;39163;52.696;6.758;2024-01-30T11:18:29;10.90;99.90
53274;DHT22;39163;52.696;6.758;2024-01-30T11:20:57;10.90;99.90
53274;DHT22;39163;52.696;6.758;2024-01-30T11:23:25;10.90;99.90
53274;DHT22;39163;52.696;6.758;2024-01-30T11:25:53;10.90;99.90
53274;DHT22;39163;52.696;6.758;2024-01-30T11:28:21;10.90;99.90
53274;DHT22;39163;52.696;6.758;2024-01-30T11:30:50;10.90;99.90
53274;DHT22;39163;52.696;6.758;2024-01-30T11:33:27;10.90;99.90
53274;DHT22;39163;52.696;6.758;2024-01-30T11:35:57;11.00;99.90
53274;DHT22;39163;52.696;6.758;2024-01-30T11:38:26;11.00;99.90
53274;DHT22;39163;52.696;6.758;2024-01-30T11:40:54;11.10;99.90
53274;DHT22;39163;52.696;6.758;2024-01-30T11:43:22;11.10;99.90
53274;DHT22;39163;52.696;6.758;2024-01-30T11:45:50;11.10;99.90
53274;DHT22;39163;52.696;6.758;2024-01-30T11:48:17;11.10;99.90
53274;DHT22;39163;52.696;6.758;2024-01-30T11:50:44;11.10;99.90
53274;DHT22;39163;52.696;6.758;2024-01-30T11:53:11;11.10;99.90
53274;DHT22;39163;52.696;6.758;2024-01-30T11:55:38;11.20;99.90
53274;DHT22;39163;52.696;6.758;2024-01-30T11:58:05;11.20;99.90
53274;DHT22;39163;52.696;6.758;2024-01-30T12:00:32;11.20;99.90
53274;DHT22;39163;52.696;6.758;2024-01-30T12:03:01;11.20;99.90
53274;DHT22;39163;52.696;6.758;2024-01-30T12:05:28;11.20;99.90
53274;DHT22;39163;52.696;6.758;2024-01-30T12:07:55;11.30;99.90
53274;DHT22;39163;52.696;6.758;2024-01-30T12:10:24;11.30;99.90
53274;DHT22;39163;52.696;6.758;2024-01-30T12:12:52;11.30;99.90
53274;DHT22;39163;52.696;6.758;2024-01-30T12:15:22;11.40;99.90
53274;DHT22;39163;52.696;6.758;2024-01-30T12:17:49;11.40;99.90
53274;DHT22;39163;52.696;6.758;2024-01-30T12:20:19;11.40;99.90
53274;DHT22;39163;52.696;6.758;2024-01-30T12:22:48;11.40;99.90
53274;DHT22;39163;52.696;6.758;2024-01-30T12:25:16;11.50;99.90
53274;DHT22;39163;52.696;6.758;2024-01-30T12:27:44;11.80;99.90
53274;DHT22;39163;52.696;6.758;2024-01-30T12:30:13;12.00;99.90
53274;DHT22;39163;52.696;6.758;2024-01-30T12:32:41;12.10;99.90
53274;DHT22;39163;52.696;6.758;2024-01-30T12:35:10;12.20;99.90
53274;DHT22;39163;52.696;6.758;2024-01-30T12:37:38;12.30;99.90
53274;DHT22;39163;52.696;6.758;2024-01-30T12:40:07;12.40;99.90
53274;DHT22;39163;52.696;6.758;2024-01-30T12:42:35;12.40;99.90
53274;DHT22;39163;52.696;6.758;2024-01-30T12:45:03;12.40;99.90
53274;DHT22;39163;52.696;6.758;2024-01-30T12:47:30;12.40;99.90
53274;DHT22;39163;52.696;6.758;2024-01-30T12:49:58;12.40;99.90
53274;DHT22;39163;52.696;6.758;2024-01-30T12:52:25;12.30;99.90
53274;DHT22;39163;52.696;6.758;2024-01-30T12:54:53;12.20;99.90
53274;DHT22;39163;52.696;6.758;2024-01-30T12:57:20;12.20;99.90
53274;DHT22;39163;52.696;6.758;2024-01-30T12:59:47;12.10;99.90
53274;DHT22;39163;52.696;6.758;2024-01-30T13:02:15;12.00;99.90
53274;DHT22;39163;52.696;6.758;2024-01-30T13:04:42;11.90;99.90
53274;DHT22;39163;52.696;6.758;2024-01-30T13:07:09;11.90;99.90
53274;DHT22;39163;52.696;6.758;2024-01-30T13:09:36;11.80;99.90
53274;DHT22;39163;52.696;6.758;2024-01-30T13:12:05;11.80;99.90
53274;DHT22;39163;52.696;6.758;2024-01-30T13:14:32;11.80;99.90
53274;DHT22;39163;52.696;6.758;2024-01-30T13:16:59;11.70;99.90
53274;DHT22;39163;52.696;6.758;2024-01-30T13:19:26;11.60;99.90
53274;DHT22;39163;52.696;6.758;2024-01-30T13:21:53;11.50;99.90
53274;DHT22;39163;52.696;6.758;2024-01-30T13:24:20;11.40;99.90
53274;DHT22;39163;52.696;6.758;2024-01-30T13:26:48;11.40;99.90
53274;DHT22;39163;52.696;6.758;2024-01-30T13:29:17;11.40;99.90
53274;DHT22;39163;52.696;6.758;2024-01-30T13:31:43;11.40;99.90
53274;DHT22;39163;52.696;6.758;2024-01-30T13:34:12;11.40;99.90
53274;DHT22;39163;52.696;6.758;2024-01-30T13:36:40;11.40;99.90
53274;DHT22;39163;52.696;6.758;2024-01-30T13:39:07;11.30;99.90
53274;DHT22;39163;52.696;6.758;2024-01-30T13:41:36;11.30;99.90
53274;DHT22;39163;52.696;6.758;2024-01-30T13:44:04;11.30;99.90
53274;DHT22;39163;52.696;6.758;2024-01-30T13:46:32;11.30;99.90
53274;DHT22;39163;52.696;6.758;2024-01-30T13:49:00;11.20;99.90
53274;DHT22;39163;52.696;6.758;2024-01-30T13:51:28;11.20;99.90
53274;DHT22;39163;52.696;6.758;2024-01-30T13:53:55;11.10;99.90
53274;DHT22;39163;52.696;6.758;2024-01-30T13:56:22;11.10;99.90
53274;DHT22;39163;52.696;6.758;2024-01-30T13:58:50;11.10;99.90
53274;DHT22;39163;52.696;6.758;2024-01-30T14:01:17;11.00;99.90
53274;DHT22;39163;52.696;6.758;2024-01-30T14:03:45;11.00;99.90
53274;DHT22;39163;52.696;6.758;2024-01-30T14:06:12;10.90;99.90
53274;DHT22;39163;52.696;6.758;2024-01-30T14:08:39;10.80;99.90
53274;DHT22;39163;52.696;6.758;2024-01-30T14:11:06;10.70;99.90
53274;DHT22;39163;52.696;6.758;2024-01-30T14:13:34;10.60;99.90
53274;DHT22;39163;52.696;6.758;2024-01-30T14:16:01;10.60;99.90
53274;DHT22;39163;52.696;6.758;2024-01-30T14:18:28;10.50;99.90
53274;DHT22;39163;52.696;6.758;2024-01-30T14:20:56;10.50;99.90
53274;DHT22;39163;52.696;6.758;2024-01-30T14:23:23;10.50;99.90
53274;DHT22;39163;52.696;6.758;2024-01-30T14:25:50;10.50;99.90
53274;DHT22;39163;52.696;6.758;2024-01-30T14:28:18;10.50;99.90
53274;DHT22;39163;52.696;6.758;2024-01-30T14:30:45;10.50;99.90
53274;DHT22;39163;52.696;6.758;2024-01-30T14:33:12;10.50;99.90
53274;DHT22;39163;52.696;6.758;2024-01-30T14:35:39;10.50;99.90
53274;DHT22;39163;52.696;6.758;2024-01-30T14:38:08;10.50;99.90
53274;DHT22;39163;52.696;6.758;2024-01-30T14:40:35;10.50;99.90
53274;DHT22;39163;52.696;6.758;2024-01-30T14:43:02;10.50;99.90
53274;DHT22;39163;52.696;6.758;2024-01-30T14:45:30;10.40;99.90
53274;DHT22;39163;52.696;6.758;2024-01-30T14:47:58;10.40;99.90
53274;DHT22;39163;52.696;6.758;2024-01-30T14:50:25;10.40;99.90
53274;DHT22;39163;52.696;6.758;2024-01-30T14:52:54;10.30;99.90
53274;DHT22;39163;52.696;6.758;2024-01-30T14:55:22;10.30;99.90
53274;DHT22;39163;52.696;6.758;2024-01-30T14:57:49;10.30;99.90
53274;DHT22;39163;52.696;6.758;2024-01-30T15:00:17;10.30;99.90
53274;DHT22;39163;52.696;6.758;2024-01-30T15:02:44;10.20;99.90
53274;DHT22;39163;52.696;6.758;2024-01-30T15:05:12;10.20;99.90
53274;DHT22;39163;52.696;6.758;2024-01-30T15:07:39;10.20;99.90
53274;DHT22;39163;52.696;6.758;2024-01-30T15:10:07;10.10;99.90
53274;DHT22;39163;52.696;6.758;2024-01-30T15:12:36;10.10;99.90
53274;DHT22;39163;52.696;6.758;2024-01-30T15:15:08;10.10;99.90
53274;DHT22;39163;52.696;6.758;2024-01-30T15:17:35;10.00;99.90
53274;DHT22;39163;52.696;6.758;2024-01-30T15:20:02;10.00;99.90
53274;DHT22;39163;52.696;6.758;2024-01-30T15:22:29;10.00;99.90
53274;DHT22;39163;52.696;6.758;2024-01-30T15:24:56;9.90;99.90
53274;DHT22;39163;52.696;6.758;2024-01-30T15:27:23;9.80;99.90
53274;DHT22;39163;52.696;6.758;2024-01-30T15:29:52;9.70;99.90
53274;DHT22;39163;52.696;6.758;2024-01-30T15:32:18;9.70;99.90
53274;DHT22;39163;52.696;6.758;2024-01-30T15:34:45;9.60;99.90
53274;DHT22;39163;52.696;6.758;2024-01-30T15:37:12;9.50;99.90
53274;DHT22;39163;52.696;6.758;2024-01-30T15:39:39;9.50;99.90
53274;DHT22;39163;52.696;6.758;2024-01-30T15:42:07;9.40;99.90